Time;durP1;ratioP1;P1;durP2;ratioP2;P2;SDS_P1;SDS_P2;PMS_P1;PMS_P2;Temp;Humidity;BMP_temperature;BMP_pressure;BME280_temperature;BME280_humidity;BME280_pressure;Samples;Min_cycle;Max_cycle;Signal;HPM_P1;HPM_P2
2023/03/03 00:00:38;;;;;;;44.13;25.40;;;;;;;1.73;83.07;95690.22;5035501;28;20191;-81
2023/03/03 00:03:06;;;;;;;42.57;24.90;;;;;;;1.74;82.92;95691.84;5021908;28;20209;-79
2023/03/03 00:05:32;;;;;;;48.80;26.03;;;;;;;1.74;82.78;95692.69;5017324;28;20685;-80
2023/03/03 00:07:58;;;;;;;36.80;23.60;;;;;;;1.75;82.49;95691.75;5014157;28;20198;-81
2023/03/03 00:10:23;;;;;;;52.97;25.30;;;;;;;1.79;82.51;95687.28;5025858;28;20225;-81
2023/03/03 00:12:49;;;;;;;43.83;26.20;;;;;;;1.76;82.79;95695.97;5032074;28;20258;-79
2023/03/03 00:15:17;;;;;;;45.53;26.43;;;;;;;1.79;82.31;95695.81;5030589;28;20265;-81
2023/03/03 00:17:43;;;;;;;42.77;25.13;;;;;;;1.78;82.39;95694.16;5040052;28;20190;-79
2023/03/03 00:20:35;;;;;;;38.60;24.00;;;;;;;1.78;82.07;95693.34;5034301;28;20186;-80
2023/03/03 00:23:12;;;;;;;40.03;25.07;;;;;;;1.75;82.49;95702.00;5030368;28;20187;-81
2023/03/03 00:25:42;;;;;;;40.10;25.00;;;;;;;1.68;82.16;95698.19;5009380;28;20202;-80
2023/03/03 00:28:26;;;;;;;44.30;26.00;;;;;;;1.59;82.76;95696.13;5015539;28;20201;-80
2023/03/03 00:30:53;;;;;;;42.23;25.70;;;;;;;1.55;83.25;95697.22;5028530;28;20229;-81
2023/03/03 00:33:27;;;;;;;43.70;24.93;;;;;;;1.52;83.17;95698.25;5009434;28;20256;-81
2023/03/03 00:35:53;;;;;;;44.67;26.17;;;;;;;1.50;83.27;95704.34;5036498;28;20206;-79
2023/03/03 00:38:19;;;;;;;41.93;26.27;;;;;;;1.51;83.32;95700.91;5032268;28;20265;-81
2023/03/03 00:40:46;;;;;;;44.90;25.37;;;;;;;1.55;82.99;95699.78;5035456;28;20237;-80
2023/03/03 00:43:19;;;;;;;41.03;25.17;;;;;;;1.53;83.03;95701.63;5022803;28;20203;-81
2023/03/03 00:45:52;;;;;;;43.87;26.17;;;;;;;1.48;83.16;95695.94;5029513;28;20293;-80
2023/03/03 00:48:26;;;;;;;43.63;24.10;;;;;;;1.41;82.96;95696.31;5029272;28;20235;-80
2023/03/03 00:50:56;;;;;;;46.57;24.83;;;;;;;1.37;83.43;95699.13;5040800;28;20279;-80
2023/03/03 00:53:24;;;;;;;41.93;23.13;;;;;;;1.33;82.97;95690.81;5031369;28;20187;-79
2023/03/03 00:55:51;;;;;;;44.53;25.60;;;;;;;1.28;83.61;95697.09;5036308;28;20257;-80
2023/03/03 00:58:17;;;;;;;42.67;25.23;;;;;;;1.26;83.71;95692.06;5020316;28;20240;-79
2023/03/03 01:00:42;;;;;;;41.00;24.20;;;;;;;1.21;83.77;95688.94;5009332;28;20183;-80
2023/03/03 01:03:11;;;;;;;42.60;26.90;;;;;;;1.18;83.85;95686.56;5025794;28;20184;-80
2023/03/03 01:05:37;;;;;;;40.87;24.27;;;;;;;1.13;83.93;95683.44;5009791;28;20210;-81
2023/03/03 01:08:03;;;;;;;39.67;24.17;;;;;;;1.09;83.70;95689.63;5022905;28;20185;-79
2023/03/03 01:10:30;;;;;;;39.50;23.13;;;;;;;1.04;83.96;95689.88;5031858;28;20266;-80
2023/03/03 01:12:56;;;;;;;43.03;25.37;;;;;;;1.01;84.24;95689.25;5048281;28;20179;-79
2023/03/03 01:15:21;;;;;;;45.47;27.00;;;;;;;0.94;84.37;95683.66;5034771;28;20212;-82
2023/03/03 01:17:47;;;;;;;45.87;24.70;;;;;;;0.93;84.62;95676.88;5027762;28;20273;-80
2023/03/03 01:20:13;;;;;;;44.53;25.27;;;;;;;0.90;84.44;95683.91;5010812;28;20176;-80
2023/03/03 01:22:39;;;;;;;45.90;25.40;;;;;;;0.85;84.74;95679.88;5026565;28;20205;-80
2023/03/03 01:25:05;;;;;;;41.90;25.43;;;;;;;0.82;84.65;95682.59;5004236;28;20215;-80
2023/03/03 01:27:30;;;;;;;42.83;25.80;;;;;;;0.79;85.25;95685.31;5013145;28;20828;-80
2023/03/03 01:29:56;;;;;;;46.43;26.43;;;;;;;0.76;85.30;95682.13;5010506;28;20184;-80
2023/03/03 01:32:23;;;;;;;46.07;25.30;;;;;;;0.79;85.16;95687.88;5016475;28;20183;-81
2023/03/03 01:34:48;;;;;;;49.47;27.13;;;;;;;0.78;85.64;95685.41;5024306;28;20218;-81
2023/03/03 01:37:13;;;;;;;45.73;26.97;;;;;;;0.78;85.32;95687.97;5028004;28;20186;-80
2023/03/03 01:39:39;;;;;;;46.20;26.33;;;;;;;0.73;85.48;95693.34;5025309;28;20184;-80
2023/03/03 01:42:04;;;;;;;41.23;24.30;;;;;;;0.70;85.58;95688.38;5036057;28;20183;-79
2023/03/03 01:44:29;;;;;;;43.67;25.17;;;;;;;0.71;85.45;95695.16;5006467;28;20211;-80
2023/03/03 01:47:08;;;;;;;44.47;25.90;;;;;;;0.67;85.48;95688.56;5017803;28;20690;-80
2023/03/03 01:49:39;;;;;;;43.87;25.80;;;;;;;0.64;85.70;95690.47;5020049;28;20523;-81
2023/03/03 01:52:13;;;;;;;44.17;25.60;;;;;;;0.61;85.81;95683.78;5034648;28;20193;-79
2023/03/03 01:54:46;;;;;;;44.53;25.83;;;;;;;0.61;85.91;95681.22;5010871;28;20740;-80
2023/03/03 01:57:16;;;;;;;41.63;24.90;;;;;;;0.56;86.29;95670.44;5030939;28;20198;-80
2023/03/03 01:59:46;;;;;;;45.83;27.10;;;;;;;0.53;86.01;95675.69;5021344;28;20663;-80
2023/03/03 02:02:11;;;;;;;48.80;26.33;;;;;;;0.48;86.39;95663.19;5027169;28;20207;-81
2023/03/03 02:04:37;;;;;;;39.80;25.17;;;;;;;0.45;86.22;95667.66;5008475;28;20226;-81
2023/03/03 02:07:08;;;;;;;43.10;25.17;;;;;;;0.47;86.09;95660.72;5020397;28;20195;-80
2023/03/03 02:09:43;;;;;;;41.77;25.77;;;;;;;0.47;86.27;95659.00;5031340;28;20182;-81
2023/03/03 02:12:10;;;;;;;46.07;25.27;;;;;;;0.42;86.41;95660.13;5029452;28;20194;-80
2023/03/03 02:14:36;;;;;;;47.93;25.50;;;;;;;0.42;86.37;95662.69;5008937;28;20277;-80
2023/03/03 02:17:01;;;;;;;48.70;26.83;;;;;;;0.40;86.59;95654.28;5004516;28;20187;-79
2023/03/03 02:19:49;;;;;;;48.83;27.87;;;;;;;0.36;86.52;95655.38;5012789;28;20187;-81
2023/03/03 02:22:17;;;;;;;40.37;24.60;;;;;;;0.30;86.64;95663.38;5041057;28;20190;-81
2023/03/03 02:24:47;;;;;;;43.00;25.00;;;;;;;0.27;86.96;95665.19;5032018;28;20286;-82
2023/03/03 02:27:13;;;;;;;45.30;26.40;;;;;;;0.26;86.95;95663.50;5026549;28;20198;-81
2023/03/03 02:29:38;;;;;;;47.77;25.63;;;;;;;0.25;86.79;95661.03;5009842;28;20187;-80
2023/03/03 02:32:04;;;;;;;49.60;27.40;;;;;;;0.23;86.79;95662.84;5029438;28;20218;-81
2023/03/03 02:34:29;;;;;;;49.30;26.73;;;;;;;0.19;87.38;95662.22;5026106;28;20222;-81
2023/03/03 02:36:54;;;;;;;46.23;26.27;;;;;;;0.17;86.90;95658.91;5026785;28;20540;-79
2023/03/03 02:39:22;;;;;;;49.40;25.77;;;;;;;0.14;87.21;95659.06;5012102;28;20194;-80
2023/03/03 02:41:47;;;;;;;49.73;27.60;;;;;;;0.11;87.20;95654.13;5023688;28;20187;-79
2023/03/03 02:44:16;;;;;;;48.67;27.63;;;;;;;0.11;87.29;95659.25;5023888;28;20210;-81
2023/03/03 02:46:43;;;;;;;44.50;27.93;;;;;;;0.07;87.44;95662.84;5017379;28;20210;-81
2023/03/03 02:49:11;;;;;;;46.50;26.77;;;;;;;0.02;87.18;95656.34;5011471;28;20183;-81
2023/03/03 02:51:37;;;;;;;47.23;26.87;;;;;;;-0.03;87.46;95664.25;5015174;28;20589;-80
2023/03/03 02:54:02;;;;;;;42.30;25.83;;;;;;;-0.07;87.09;95668.69;5008633;28;20203;-80
2023/03/03 02:56:28;;;;;;;51.60;27.03;;;;;;;-0.08;87.63;95668.78;5027972;28;20206;-80
2023/03/03 02:58:53;;;;;;;48.17;26.00;;;;;;;-0.09;87.50;95674.75;5008483;28;20193;-80
2023/03/03 03:01:19;;;;;;;44.23;26.07;;;;;;;-0.12;87.55;95669.84;5007811;28;20277;-80
2023/03/03 03:03:44;;;;;;;43.90;25.77;;;;;;;-0.15;87.33;95668.28;5024364;28;20199;-79
2023/03/03 03:06:09;;;;;;;45.83;24.47;;;;;;;-0.14;87.80;95664.00;5034980;28;20281;-81
2023/03/03 03:08:35;;;;;;;45.23;26.77;;;;;;;-0.09;87.15;95674.75;5035812;28;20183;-79
2023/03/03 03:11:00;;;;;;;45.93;27.23;;;;;;;-0.11;87.48;95676.59;5010689;28;20639;-80
2023/03/03 03:13:25;;;;;;;54.77;27.47;;;;;;;-0.08;87.72;95673.88;5012230;28;20286;-81
2023/03/03 03:15:51;;;;;;;48.50;27.97;;;;;;;-0.05;87.66;95671.16;5024584;28;20851;-80
2023/03/03 03:18:16;;;;;;;42.33;26.27;;;;;;;-0.02;87.41;95678.66;5008368;28;20198;-80
2023/03/03 03:20:42;;;;;;;43.63;26.27;;;;;;;0.00;87.14;95669.22;5009375;28;20205;-81
2023/03/03 03:23:08;;;;;;;42.67;25.90;;;;;;;0.01;87.07;95670.03;5026067;28;20183;-81
2023/03/03 03:25:34;;;;;;;43.77;25.53;;;;;;;0.01;87.37;95675.97;5028285;28;20210;-81
2023/03/03 03:28:00;;;;;;;44.00;27.10;;;;;;;0.02;87.36;95679.34;5026754;28;20257;-81
2023/03/03 03:30:25;;;;;;;48.40;26.87;;;;;;;0.00;87.60;95674.31;5012486;28;20285;-81
2023/03/03 03:32:51;;;;;;;44.27;25.40;;;;;;;-0.01;87.27;95676.00;5020570;28;20715;-80
2023/03/03 03:35:16;;;;;;;47.80;26.17;;;;;;;-0.02;87.46;95674.38;5024491;28;20211;-81
2023/03/03 03:37:42;;;;;;;45.30;26.27;;;;;;;0.01;87.49;95681.06;5024865;28;20202;-81
2023/03/03 03:40:08;;;;;;;48.53;26.30;;;;;;;0.01;87.42;95682.78;5018634;28;20191;-80
2023/03/03 03:42:34;;;;;;;48.00;27.47;;;;;;;-0.01;87.65;95672.63;5032241;28;20203;-81
2023/03/03 03:44:59;;;;;;;51.17;29.17;;;;;;;0.01;87.93;95675.97;5027660;28;20220;-80
2023/03/03 03:47:24;;;;;;;54.60;28.17;;;;;;;0.07;87.39;95675.63;5015526;28;20217;-81
2023/03/03 03:49:50;;;;;;;49.97;29.37;;;;;;;0.15;87.67;95677.75;5011301;28;20199;-81
2023/03/03 03:52:15;;;;;;;52.47;29.20;;;;;;;0.20;87.59;95676.63;5028308;28;20202;-81
2023/03/03 03:54:40;;;;;;;48.80;28.50;;;;;;;0.27;87.33;95683.06;5036895;28;20275;-81
2023/03/03 03:57:06;;;;;;;52.10;27.90;;;;;;;0.30;87.12;95683.78;5024013;28;20237;-79
2023/03/03 03:59:31;;;;;;;48.33;27.67;;;;;;;0.31;87.34;95688.00;5025352;28;20186;-80
2023/03/03 04:01:56;;;;;;;53.33;28.03;;;;;;;0.35;87.26;95679.25;5014111;28;20544;-81
2023/03/03 04:04:22;;;;;;;51.50;29.70;;;;;;;0.39;87.30;95681.56;5029046;28;20265;-81
2023/03/03 04:06:48;;;;;;;56.30;31.17;;;;;;;0.39;87.82;95681.56;5025069;28;20191;-81
2023/03/03 04:09:13;;;;;;;52.43;28.43;;;;;;;0.44;87.78;95671.09;5028166;28;20190;-81
2023/03/03 04:11:38;;;;;;;51.27;28.93;;;;;;;0.50;87.22;95678.44;5028658;28;20214;-80
2023/03/03 04:14:04;;;;;;;52.10;29.40;;;;;;;0.53;87.62;95674.00;5030238;28;20202;-80
2023/03/03 04:16:29;;;;;;;54.30;30.40;;;;;;;0.62;87.43;95669.25;5025103;28;20206;-80
2023/03/03 04:18:54;;;;;;;51.40;28.63;;;;;;;0.63;87.12;95676.88;5037263;28;20184;-81
2023/03/03 04:21:20;;;;;;;54.17;29.50;;;;;;;0.68;87.32;95674.88;5014186;28;20183;-79
2023/03/03 04:23:45;;;;;;;53.63;28.30;;;;;;;0.71;87.36;95672.16;5022455;28;20241;-78
2023/03/03 04:26:10;;;;;;;55.63;30.27;;;;;;;0.76;87.13;95679.56;5014088;28;20206;-78
2023/03/03 04:28:36;;;;;;;59.73;31.43;;;;;;;0.74;87.45;95691.59;5014122;28;20179;-78
2023/03/03 04:31:01;;;;;;;59.27;31.03;;;;;;;0.78;87.03;95695.63;5032791;28;20174;-81
2023/03/03 04:33:27;;;;;;;58.37;29.60;;;;;;;0.83;86.66;95693.66;5008345;28;20209;-81
2023/03/03 04:35:52;;;;;;;53.23;29.57;;;;;;;0.84;86.94;95685.88;5026842;28;20218;-79
2023/03/03 04:38:17;;;;;;;48.10;27.93;;;;;;;0.84;86.54;95685.88;5027233;28;20619;-79
2023/03/03 04:40:43;;;;;;;54.20;30.30;;;;;;;0.88;86.93;95685.72;5025189;28;20198;-80
2023/03/03 04:43:09;;;;;;;54.10;29.83;;;;;;;0.83;86.65;95674.03;5018766;28;20195;-79
2023/03/03 04:45:35;;;;;;;53.57;29.90;;;;;;;0.80;87.18;95669.09;5012486;28;20234;-80
2023/03/03 04:48:01;;;;;;;54.53;31.20;;;;;;;0.85;87.03;95687.53;5013144;28;20191;-81
2023/03/03 04:50:26;;;;;;;56.30;29.53;;;;;;;0.91;86.55;95688.13;5008067;28;20191;-80
2023/03/03 04:52:52;;;;;;;54.00;29.77;;;;;;;0.92;86.52;95689.75;5011186;28;20596;-80
2023/03/03 04:55:17;;;;;;;61.67;31.77;;;;;;;0.88;86.77;95688.28;5024694;28;20217;-80
2023/03/03 04:57:42;;;;;;;58.53;31.53;;;;;;;0.84;86.94;95696.13;5034690;28;20203;-79
2023/03/03 05:00:11;;;;;;;56.67;31.97;;;;;;;0.91;86.56;95688.13;5035771;28;20198;-80
2023/03/03 05:02:37;;;;;;;56.93;31.03;;;;;;;0.94;86.38;95695.59;5022122;28;20187;-79
2023/03/03 05:05:02;;;;;;;52.43;31.70;;;;;;;0.89;86.84;95703.53;5037965;28;20298;-81
2023/03/03 05:07:28;;;;;;;57.83;31.30;;;;;;;0.94;86.32;95706.66;5030161;28;20187;-81
2023/03/03 05:09:53;;;;;;;58.10;30.73;;;;;;;0.95;86.42;95698.06;5015108;28;20585;-80
2023/03/03 05:12:18;;;;;;;58.63;33.07;;;;;;;0.94;86.31;95705.84;5032314;28;20191;-81
2023/03/03 05:14:44;;;;;;;60.20;32.67;;;;;;;0.93;86.51;95701.63;5024127;28;20218;-81
2023/03/03 05:17:09;;;;;;;56.03;31.57;;;;;;;0.99;86.81;95701.31;5009655;28;20601;-79
2023/03/03 05:19:34;;;;;;;62.27;33.40;;;;;;;1.00;85.92;95696.09;5029808;28;20203;-80
2023/03/03 05:22:00;;;;;;;78.87;39.87;;;;;;;1.03;86.40;95698.47;5014453;28;20197;-80
2023/03/03 05:24:26;;;;;;;92.27;49.47;;;;;;;1.03;86.57;95700.19;5032377;28;20627;-78
2023/03/03 05:26:52;;;;;;;82.20;46.20;;;;;;;1.08;86.05;95699.03;5027423;28;20186;-80
2023/03/03 05:29:17;;;;;;;77.43;44.57;;;;;;;1.07;86.16;95692.28;5013465;28;20183;-78
2023/03/03 05:31:42;;;;;;;66.70;40.47;;;;;;;1.08;86.28;95695.66;5014408;28;20190;-80
2023/03/03 05:34:07;;;;;;;56.87;32.60;;;;;;;1.10;86.26;95696.41;5007668;28;20207;-78
2023/03/03 05:36:33;;;;;;;58.70;32.30;;;;;;;1.03;86.30;95700.19;5012256;28;20245;-80
2023/03/03 05:38:58;;;;;;;55.43;31.57;;;;;;;1.02;86.46;95696.81;5033853;28;20187;-80
2023/03/03 05:41:24;;;;;;;58.67;32.13;;;;;;;1.03;86.40;95702.75;5014644;28;20187;-80
2023/03/03 05:43:49;;;;;;;61.17;31.63;;;;;;;1.02;86.48;95708.78;5035188;28;20195;-77
2023/03/03 05:46:15;;;;;;;55.30;31.00;;;;;;;1.05;86.72;95714.53;5013993;28;20214;-80
2023/03/03 05:48:40;;;;;;;55.33;30.90;;;;;;;1.08;86.60;95719.50;5031363;28;20217;-78
2023/03/03 05:51:06;;;;;;;67.10;33.07;;;;;;;1.08;86.42;95716.13;5033582;28;20281;-79
2023/03/03 05:53:31;;;;;;;60.10;33.27;;;;;;;1.03;86.62;95725.78;5013656;28;20214;-81
2023/03/03 05:55:57;;;;;;;58.90;33.33;;;;;;;1.04;86.54;95724.88;5022174;28;20202;-80
2023/03/03 05:58:22;;;;;;;59.70;33.07;;;;;;;1.03;86.61;95725.78;5006044;28;20194;-79
2023/03/03 06:00:47;;;;;;;56.90;32.43;;;;;;;1.07;86.31;95724.72;5004919;28;20175;-79
2023/03/03 06:03:12;;;;;;;57.20;32.00;;;;;;;1.07;86.29;95722.16;5025353;28;20176;-79
2023/03/03 06:05:38;;;;;;;57.97;32.33;;;;;;;1.05;86.35;95726.50;5019362;28;20238;-80
2023/03/03 06:08:03;;;;;;;55.70;31.07;;;;;;;1.03;86.06;95730.88;5009880;28;20217;-79
2023/03/03 06:10:29;;;;;;;53.97;30.77;;;;;;;0.94;85.93;95733.97;5007991;28;20271;-79
2023/03/03 06:12:54;;;;;;;59.33;31.97;;;;;;;0.96;85.92;95737.25;5035729;28;20815;-80
2023/03/03 06:15:21;;;;;;;58.50;30.67;;;;;;;1.05;85.46;95739.28;5016433;28;20226;-79
2023/03/03 06:17:46;;;;;;;59.13;32.63;;;;;;;1.05;85.21;95742.69;5026601;28;20721;-78
2023/03/03 06:20:12;;;;;;;56.97;32.27;;;;;;;1.04;85.39;95747.88;5031499;28;20213;-81
2023/03/03 06:22:37;;;;;;;54.77;31.20;;;;;;;1.11;85.34;95751.75;5014080;28;20230;-82
2023/03/03 06:25:02;;;;;;;58.63;32.20;;;;;;;1.12;85.08;95745.72;5017299;28;20230;-78
2023/03/03 06:27:28;;;;;;;60.20;32.57;;;;;;;1.17;84.67;95748.88;5022971;28;20197;-80
2023/03/03 06:29:53;;;;;;;62.47;32.97;;;;;;;1.15;84.34;95750.69;5028729;28;20248;-81
2023/03/03 06:32:18;;;;;;;52.27;30.87;;;;;;;1.13;84.53;95750.75;5021029;28;20187;-81
2023/03/03 06:34:43;;;;;;;61.40;32.77;;;;;;;1.12;84.41;95750.84;5006985;28;20218;-81
2023/03/03 06:37:09;;;;;;;57.57;34.50;;;;;;;1.10;84.59;95755.22;5030671;28;20190;-81
2023/03/03 06:39:34;;;;;;;58.47;32.13;;;;;;;1.14;83.93;95762.63;5034999;28;20186;-81
2023/03/03 06:42:00;;;;;;;63.80;33.47;;;;;;;1.16;83.68;95765.13;5004793;28;20667;-81
2023/03/03 06:44:25;;;;;;;59.97;32.03;;;;;;;1.19;83.72;95772.63;5036016;28;20193;-81
2023/03/03 06:46:50;;;;;;;57.97;32.43;;;;;;;1.22;83.63;95775.00;5022263;28;20191;-80
2023/03/03 06:49:16;;;;;;;61.97;33.10;;;;;;;1.23;83.62;95768.16;5002627;28;20206;-81
2023/03/03 06:51:42;;;;;;;58.53;32.67;;;;;;;1.17;83.65;95773.63;5023021;28;20194;-80
2023/03/03 06:54:13;;;;;;;58.27;33.63;;;;;;;1.25;83.28;95771.47;5025333;28;20198;-81
2023/03/03 06:56:39;;;;;;;62.83;33.70;;;;;;;1.29;83.15;95778.88;5002471;28;20563;-80
2023/03/03 06:59:11;;;;;;;61.83;34.27;;;;;;;1.32;83.19;95781.25;5021278;28;20187;-81
2023/03/03 07:01:37;;;;;;;61.00;34.50;;;;;;;1.39;82.67;95782.56;5018945;28;20675;-81
2023/03/03 07:04:32;;;;;;;57.50;33.70;;;;;;;1.42;82.69;95779.84;5016504;28;20183;-81
2023/03/03 07:06:59;;;;;;;52.70;30.93;;;;;;;1.46;82.60;95783.03;5017678;28;20198;-79
2023/03/03 07:09:27;;;;;;;59.27;32.37;;;;;;;1.51;82.39;95782.78;5011876;28;20198;-81
2023/03/03 07:11:56;;;;;;;58.13;31.53;;;;;;;1.56;82.21;95786.72;5022026;28;20245;-81
2023/03/03 07:14:21;;;;;;;58.50;31.27;;;;;;;1.52;80.98;95787.81;5016094;28;20218;-78
2023/03/03 07:16:53;;;;;;;52.93;29.50;;;;;;;1.49;80.45;95790.53;5028388;28;20201;-80
2023/03/03 07:19:25;;;;;;;57.67;30.07;;;;;;;1.52;80.27;95789.56;5034224;28;20258;-81
2023/03/03 07:21:51;;;;;;;50.23;29.47;;;;;;;1.58;80.47;95787.44;5029144;28;20186;-79
2023/03/03 07:24:30;;;;;;;49.37;29.40;;;;;;;1.57;79.36;95801.16;5006753;28;20186;-79
2023/03/03 07:27:00;;;;;;;56.00;30.27;;;;;;;1.68;79.36;95800.59;5017354;28;20593;-80
2023/03/03 07:29:27;;;;;;;52.27;29.87;;;;;;;1.78;78.93;95801.69;5023730;28;20182;-80
2023/03/03 07:31:54;;;;;;;49.57;30.27;;;;;;;1.86;78.35;95794.41;5034391;28;20187;-80
2023/03/03 07:34:36;;;;;;;53.90;31.03;;;;;;;1.86;77.96;95799.53;5024892;28;20294;-80
2023/03/03 07:37:05;;;;;;;51.07;28.43;;;;;;;1.99;77.92;95804.75;5021178;28;20197;-79
2023/03/03 07:39:34;;;;;;;47.93;29.93;;;;;;;2.06;77.66;95800.09;5020065;28;20197;-78
2023/03/03 07:42:27;;;;;;;51.93;31.33;;;;;;;2.08;76.03;95805.94;5007145;28;20194;-79
2023/03/03 07:44:58;;;;;;;52.33;32.57;;;;;;;2.07;76.33;95807.69;5006760;28;20226;-79
2023/03/03 07:47:24;;;;;;;53.00;30.10;;;;;;;2.20;76.64;95805.22;5003197;28;20739;-79
2023/03/03 07:49:52;;;;;;;45.30;26.60;;;;;;;2.15;75.41;95812.38;5019993;28;20190;-80
2023/03/03 07:52:26;;;;;;;50.60;28.80;;;;;;;2.24;74.55;95820.34;5013903;28;20710;-81
2023/03/03 07:54:53;;;;;;;44.97;27.03;;;;;;;2.32;73.58;95821.63;5024631;28;20259;-79
2023/03/03 07:57:45;;;;;;;44.20;26.73;;;;;;;2.42;73.46;95826.09;5029121;28;20186;-81
2023/03/03 08:00:15;;;;;;;47.30;27.23;;;;;;;2.52;73.62;95819.50;5032283;28;20243;-80
2023/03/03 08:02:43;;;;;;;44.57;26.70;;;;;;;2.48;73.40;95820.63;5023918;28;20225;-79
2023/03/03 08:05:37;;;;;;;46.97;25.67;;;;;;;2.59;72.91;95829.41;5019751;28;20616;-79
2023/03/03 08:08:08;;;;;;;44.90;26.10;;;;;;;2.56;72.07;95830.41;5036073;28;20320;-78
2023/03/03 08:10:36;;;;;;;45.97;26.43;;;;;;;2.60;71.14;95826.75;5034932;28;20191;-80
2023/03/03 08:13:16;;;;;;;43.87;25.97;;;;;;;2.77;71.87;95830.84;5032453;28;20190;-79
2023/03/03 08:15:41;;;;;;;43.90;26.87;;;;;;;2.65;71.03;95835.00;5015286;28;20297;-80
2023/03/03 08:18:41;;;;;;;44.47;26.60;;;;;;;2.93;71.53;95834.13;5012052;28;20209;-79
2023/03/03 08:21:14;;;;;;;45.17;25.80;;;;;;;2.84;71.25;95842.41;4965042;28;20292;-80
2023/03/03 08:23:39;;;;;;;42.57;24.43;;;;;;;3.02;69.53;95846.41;4977341;28;20184;-81
2023/03/03 08:26:05;;;;;;;45.67;26.40;;;;;;;3.17;69.87;95833.53;4952759;28;20230;-79
2023/03/03 08:28:30;;;;;;;42.13;25.37;;;;;;;3.33;69.85;95827.34;4961767;28;20207;-81
2023/03/03 08:30:56;;;;;;;39.37;24.40;;;;;;;3.50;69.05;95831.41;4969559;28;20191;-80
2023/03/03 08:33:21;;;;;;;42.40;24.03;;;;;;;3.50;66.93;95822.88;4963415;28;20208;-80
2023/03/03 08:35:47;;;;;;;34.07;21.60;;;;;;;3.38;65.49;95825.31;4972200;28;20763;-80
2023/03/03 08:38:15;;;;;;;41.33;23.20;;;;;;;3.86;65.89;95824.81;4970438;28;20204;-80
2023/03/03 08:40:40;;;;;;;40.97;23.47;;;;;;;3.85;64.02;95823.19;4992470;28;20197;-79
2023/03/03 08:43:06;;;;;;;39.87;21.80;;;;;;;4.02;63.76;95819.50;4972652;28;20207;-79
2023/03/03 08:45:32;;;;;;;40.63;23.63;;;;;;;4.14;64.15;95818.69;4973343;28;20216;-79
2023/03/03 08:47:58;;;;;;;39.03;23.53;;;;;;;4.13;63.13;95824.75;4977308;28;20192;-79
2023/03/03 08:50:24;;;;;;;38.50;23.37;;;;;;;4.00;62.85;95822.19;4949169;28;20680;-79
2023/03/03 08:52:49;;;;;;;41.03;25.57;;;;;;;4.06;62.93;95816.63;4962813;28;20267;-80
2023/03/03 08:55:15;;;;;;;38.67;24.37;;;;;;;3.87;62.91;95826.47;4976882;28;20596;-80
2023/03/03 08:57:40;;;;;;;42.90;24.47;;;;;;;3.89;62.66;95819.50;4984423;28;20199;-80
2023/03/03 09:00:07;;;;;;;42.23;23.93;;;;;;;3.90;63.25;95831.44;5015281;28;20182;-80
2023/03/03 09:02:33;;;;;;;38.93;24.33;;;;;;;3.92;63.91;95830.41;5029690;28;20202;-81
2023/03/03 09:04:58;;;;;;;39.97;23.83;;;;;;;3.88;63.82;95839.22;5002009;28;20203;-79
2023/03/03 09:07:23;;;;;;;41.50;24.40;;;;;;;4.03;64.20;95839.97;5023243;28;20197;-80
2023/03/03 09:09:49;;;;;;;40.17;23.90;;;;;;;3.98;63.40;95844.59;5028734;28;20659;-80
2023/03/03 09:12:17;;;;;;;40.67;24.90;;;;;;;4.02;62.76;95840.88;5016106;28;20188;-81
2023/03/03 09:14:42;;;;;;;42.37;25.23;;;;;;;4.10;62.22;95848.09;5019474;28;20217;-81
2023/03/03 09:17:33;;;;;;;42.30;24.70;;;;;;;3.89;64.50;95858.88;5007334;28;20784;-80
2023/03/03 09:20:14;;;;;;;39.40;25.60;;;;;;;3.94;67.62;95859.38;5015116;28;20188;-80
2023/03/03 09:22:40;;;;;;;44.20;25.47;;;;;;;3.85;68.68;95861.72;5033693;28;20191;-80
2023/03/03 09:25:18;;;;;;;42.40;26.30;;;;;;;3.14;69.65;95862.78;5028451;28;20645;-80
2023/03/03 09:27:43;;;;;;;43.90;25.53;;;;;;;3.73;68.51;95867.66;5018187;28;20185;-80
2023/03/03 09:30:26;;;;;;;40.97;25.40;;;;;;;3.97;65.98;95874.59;5036014;28;20193;-80
2023/03/03 09:32:52;;;;;;;38.80;24.33;;;;;;;4.04;64.77;95874.19;5033602;28;20187;-81
2023/03/03 09:35:37;;;;;;;41.33;23.60;;;;;;;4.35;64.29;95878.16;5034260;28;20210;-80
2023/03/03 09:38:18;;;;;;;36.83;22.37;;;;;;;4.49;62.93;95878.88;5019415;28;20179;-80
2023/03/03 09:40:49;;;;;;;40.30;24.60;;;;;;;4.62;62.15;95878.88;5037374;28;20186;-81
2023/03/03 09:43:27;;;;;;;44.03;24.03;;;;;;;4.56;62.38;95869.00;5030482;28;20202;-79
2023/03/03 09:46:03;;;;;;;37.90;24.27;;;;;;;4.44;62.34;95869.84;5035973;28;20573;-81
2023/03/03 09:48:55;;;;;;;36.83;22.90;;;;;;;4.73;61.58;95873.84;5022465;28;20190;-78
2023/03/03 09:51:37;;;;;;;37.27;23.70;;;;;;;4.70;62.44;95873.22;5034788;28;20199;-82
2023/03/03 09:54:15;;;;;;;40.73;23.17;;;;;;;4.74;62.21;95875.47;5016475;28;20206;-79
2023/03/03 09:56:54;;;;;;;38.70;24.07;;;;;;;4.61;61.67;95871.28;5038456;28;20185;-81
2023/03/03 09:59:28;;;;;;;37.27;24.67;;;;;;;4.87;61.08;95869.50;5016856;28;20192;-79
2023/03/03 10:02:22;;;;;;;38.67;23.37;;;;;;;4.84;59.91;95873.91;5014245;28;20242;-79
2023/03/03 10:05:12;;;;;;;40.87;24.40;;;;;;;5.08;60.79;95879.13;5023087;28;20683;-80
2023/03/03 10:08:01;;;;;;;38.30;22.93;;;;;;;5.25;60.24;95874.56;5013938;28;20189;-79
2023/03/03 10:10:45;;;;;;;38.40;22.50;;;;;;;4.93;59.56;95876.78;5031567;28;20180;-81
2023/03/03 10:13:29;;;;;;;39.80;23.13;;;;;;;5.06;59.09;95886.16;5036814;28;20183;-81
2023/03/03 10:16:13;;;;;;;37.90;24.27;;;;;;;5.00;59.32;95884.00;5031007;28;20206;-80
2023/03/03 10:18:51;;;;;;;37.00;23.43;;;;;;;4.70;59.30;95888.66;5030715;28;20182;-79
2023/03/03 10:21:31;;;;;;;34.90;22.67;;;;;;;5.02;58.99;95889.84;5027196;28;20189;-80
2023/03/03 10:24:25;;;;;;;36.67;23.07;;;;;;;5.15;59.06;95884.69;5023504;28;20192;-80
2023/03/03 10:26:57;;;;;;;37.33;22.33;;;;;;;5.13;59.13;95896.03;5012256;28;20190;-80
2023/03/03 10:29:37;;;;;;;42.10;23.50;;;;;;;5.07;59.27;95894.69;5025402;28;20221;-81
2023/03/03 10:32:27;;;;;;;36.60;23.57;;;;;;;5.24;58.61;95894.34;5026785;28;20199;-81
2023/03/03 10:35:01;;;;;;;36.23;23.57;;;;;;;5.34;58.66;95887.63;5038422;28;20256;-81
2023/03/03 10:37:30;;;;;;;35.67;23.53;;;;;;;5.44;58.47;95892.13;5018338;28;20720;-80
2023/03/03 10:40:04;;;;;;;39.93;24.07;;;;;;;5.38;57.68;95889.03;5015467;28;20298;-79
2023/03/03 10:43:01;;;;;;;39.30;24.13;;;;;;;5.47;57.46;95890.16;5019475;28;20205;-81
2023/03/03 10:45:45;;;;;;;39.80;23.23;;;;;;;5.52;57.50;95892.41;5016240;28;20222;-81
2023/03/03 10:48:32;;;;;;;36.30;23.23;;;;;;;5.63;57.63;95889.91;5018329;28;20266;-81
2023/03/03 10:51:31;;;;;;;40.67;23.73;;;;;;;5.82;56.55;95897.97;5027560;28;20692;-79
2023/03/03 10:54:21;;;;;;;36.27;22.33;;;;;;;6.50;55.17;95886.16;5032485;28;20302;-79
2023/03/03 10:56:59;;;;;;;36.33;22.20;;;;;;;6.75;53.92;95892.88;5021215;28;20191;-81
2023/03/03 11:00:01;;;;;;;33.97;22.27;;;;;;;7.04;54.48;95895.81;5022658;28;20199;-79
2023/03/03 11:02:45;;;;;;;36.27;22.77;;;;;;;7.10;52.96;95896.19;5014084;28;20255;-78
2023/03/03 11:05:16;;;;;;;38.17;22.50;;;;;;;6.90;52.17;95889.16;5029340;28;20210;-80
2023/03/03 11:07:53;;;;;;;35.47;22.23;;;;;;;6.83;51.94;95895.72;5022752;28;20226;-80
2023/03/03 11:10:27;;;;;;;36.97;22.50;;;;;;;6.75;52.83;95888.53;5021456;28;20287;-79
2023/03/03 11:12:59;;;;;;;39.67;22.20;;;;;;;6.46;54.08;95901.06;5013640;28;20187;-79
2023/03/03 11:15:42;;;;;;;35.73;23.43;;;;;;;6.78;53.00;95890.06;5015830;28;20249;-79
2023/03/03 11:18:35;;;;;;;37.27;22.77;;;;;;;6.53;53.48;95891.91;5035387;28;20189;-79
2023/03/03 11:21:12;;;;;;;33.17;22.67;;;;;;;6.21;54.98;95894.28;5018213;28;20183;-78
2023/03/03 11:23:40;;;;;;;32.70;21.90;;;;;;;6.55;54.12;95893.56;5029093;28;20186;-79
2023/03/03 11:26:22;;;;;;;33.40;22.30;;;;;;;6.75;54.25;95895.47;5020140;28;20214;-79
2023/03/03 11:29:06;;;;;;;34.00;22.43;;;;;;;6.92;53.20;95904.53;5000821;28;20245;-78
2023/03/03 11:31:44;;;;;;;39.63;22.80;;;;;;;6.93;52.83;95903.56;5027068;28;20214;-79
2023/03/03 11:34:36;;;;;;;34.23;21.73;;;;;;;7.16;51.72;95904.41;5022858;28;20710;-79
2023/03/03 11:37:05;;;;;;;40.33;23.37;;;;;;;7.28;51.10;95903.47;5026655;28;20731;-79